createdAt,value
2019-05-06T00:01:00.173Z,73.14
2019-05-06T00:03:31.466Z,72.81
2019-05-06T00:06:03.950Z,72.55
2019-05-06T00:08:35.336Z,72.61
2019-05-06T00:11:06.629Z,72.71
2019-05-06T00:13:37.882Z,72.72
2019-05-06T00:16:09.373Z,72.79
2019-05-06T00:18:40.634Z,72.78
2019-05-06T00:21:11.929Z,72.98
2019-05-06T00:23:49.275Z,73.08
2019-05-06T00:26:39.458Z,73.03
2019-05-06T00:29:24.175Z,72.96
2019-05-06T00:31:55.615Z,73.14
2019-05-06T00:34:26.883Z,73.36
2019-05-06T00:36:58.184Z,73.47
2019-05-06T00:39:44.427Z,73.58
2019-05-06T00:42:46.625Z,73.69
2019-05-06T00:45:17.964Z,73.77
2019-05-06T00:47:49.273Z,73.66
2019-05-06T00:50:20.554Z,73.50
2019-05-06T00:52:53.935Z,73.45
2019-05-06T00:55:25.323Z,73.43
2019-05-06T00:57:56.633Z,73.46
2019-05-06T01:00:33.757Z,73.44
2019-05-06T01:03:05.076Z,73.42
2019-05-06T01:05:36.350Z,73.47
2019-05-06T01:08:07.643Z,73.75
2019-05-06T01:10:38.978Z,74.17
2019-05-06T01:13:20.054Z,74.55
2019-05-06T01:15:51.348Z,74.74
2019-05-06T01:18:24.499Z,74.82
2019-05-06T01:21:10.197Z,74.95
2019-05-06T01:23:45.053Z,74.89
2019-05-06T01:26:17.279Z,74.92
2019-05-06T01:28:48.534Z,75.04
2019-05-06T01:31:19.839Z,75.15
2019-05-06T01:33:53.419Z,75.31
2019-05-06T01:36:24.990Z,75.52
2019-05-06T01:39:13.985Z,75.77
2019-05-06T01:41:53.734Z,75.97
2019-05-06T01:44:25.059Z,76.11
2019-05-06T01:46:56.366Z,76.09
2019-05-06T01:49:27.707Z,76.18
2019-05-06T01:51:58.995Z,76.34
2019-05-06T01:54:30.306Z,76.60
2019-05-06T01:57:01.588Z,76.76
2019-05-06T01:59:34.050Z,76.51
2019-05-06T02:02:05.907Z,76.41
2019-05-06T02:04:37.204Z,76.32
2019-05-06T02:07:08.489Z,76.30
2019-05-06T02:09:39.769Z,76.38
2019-05-06T02:12:11.040Z,76.36
2019-05-06T02:14:43.705Z,76.32
2019-05-06T02:17:15.135Z,76.53
2019-05-06T02:19:46.419Z,76.73
2019-05-06T02:22:26.150Z,76.78
2019-05-06T02:25:01.034Z,76.99
2019-05-06T02:27:34.124Z,77.13
2019-05-06T02:30:28.080Z,77.30
2019-05-06T02:33:05.847Z,77.38
2019-05-06T02:35:45.613Z,77.65
2019-05-06T02:38:32.587Z,77.88
2019-05-06T02:40:57.500Z,78.16
2019-05-06T02:43:28.777Z,78.21
2019-05-06T02:46:03.946Z,78.52
2019-05-06T02:48:55.468Z,78.66
2019-05-06T02:51:28.220Z,78.88
2019-05-06T02:53:59.522Z,79.00
2019-05-06T02:56:33.287Z,79.10
2019-05-06T02:59:04.126Z,79.47
2019-05-06T03:01:35.434Z,79.67
2019-05-06T03:04:06.717Z,79.62
2019-05-06T03:06:37.971Z,79.88
2019-05-06T03:09:09.239Z,80.21
2019-05-06T03:11:40.537Z,80.25
2019-05-06T03:14:13.945Z,80.61
2019-05-06T03:16:44.844Z,80.95
2019-05-06T03:19:16.114Z,81.12
2019-05-06T03:22:09.264Z,81.18
2019-05-06T03:24:44.468Z,81.28
2019-05-06T03:27:15.767Z,81.52
2019-05-06T03:29:47.074Z,81.62
2019-05-06T03:32:24.824Z,81.71
2019-05-06T03:35:07.574Z,81.83
2019-05-06T03:37:24.340Z,82.20
2019-05-06T03:39:55.611Z,82.01
2019-05-06T03:42:26.872Z,82.35
2019-05-06T03:45:04.141Z,82.59
2019-05-06T03:47:47.002Z,82.83
2019-05-06T03:50:18.335Z,82.84
2019-05-06T03:52:49.869Z,82.90
2019-05-06T03:55:23.441Z,82.73
2019-05-06T03:57:57.098Z,82.99
2019-05-06T04:00:28.428Z,83.10
2019-05-06T04:03:02.803Z,83.15
2019-05-06T04:05:33.518Z,83.26
2019-05-06T04:08:05.092Z,83.20
2019-05-06T04:10:37.209Z,83.18
2019-05-06T04:13:13.460Z,82.94
2019-05-06T04:16:05.059Z,83.00
2019-05-06T04:18:38.281Z,82.73
2019-05-06T04:21:23.957Z,82.32
2019-05-06T04:24:04.096Z,82.03
2019-05-06T04:26:56.397Z,81.84
2019-05-06T04:29:29.360Z,81.54
2019-05-06T04:32:03.295Z,81.44
2019-05-06T04:34:34.424Z,81.05
2019-05-06T04:37:05.755Z,80.90
2019-05-06T04:39:37.094Z,81.16
2019-05-06T04:42:09.689Z,80.83
2019-05-06T04:44:43.786Z,80.52
2019-05-06T04:47:14.900Z,80.33
2019-05-06T04:49:46.856Z,80.03
2019-05-06T04:52:18.177Z,79.62
2019-05-06T04:54:49.455Z,79.73
2019-05-06T04:57:23.478Z,79.74
2019-05-06T04:59:54.400Z,79.48
2019-05-06T05:02:25.690Z,79.06
2019-05-06T05:04:57.780Z,79.41
2019-05-06T05:07:29.047Z,79.75
2019-05-06T05:10:09.318Z,80.07
2019-05-06T05:13:05.308Z,80.10
2019-05-06T05:15:58.232Z,79.93
2019-05-06T05:18:37.669Z,80.57
2019-05-06T05:21:09.040Z,80.40
2019-05-06T05:23:42.741Z,80.46
2019-05-06T05:26:13.682Z,80.44
2019-05-06T05:28:45.029Z,79.33
2019-05-06T05:31:16.352Z,79.98
2019-05-06T05:33:47.735Z,80.27
2019-05-06T05:36:19.051Z,80.35
2019-05-06T05:38:52.290Z,80.20
2019-05-06T05:41:24.031Z,79.49
2019-05-06T05:44:20.367Z,80.38
2019-05-06T05:46:52.326Z,80.78
2019-05-06T05:49:42.707Z,80.05
2019-05-06T05:52:14.366Z,79.62
2019-05-06T05:54:45.989Z,79.65
2019-05-06T05:57:17.791Z,79.14
2019-05-06T05:59:49.071Z,78.32
2019-05-06T06:02:22.482Z,78.74
2019-05-06T06:04:57.261Z,78.33
2019-05-06T06:07:26.842Z,78.14
2019-05-06T06:10:04.799Z,77.82
2019-05-06T06:12:36.124Z,78.33
2019-05-06T06:15:19.490Z,78.16
2019-05-06T06:18:15.563Z,78.08
2019-05-06T06:21:17.686Z,77.34
2019-05-06T06:23:42.042Z,77.02
2019-05-06T06:26:13.303Z,77.11
2019-05-06T06:28:44.552Z,76.76
2019-05-06T06:31:23.484Z,77.10
2019-05-06T06:34:01.522Z,77.21
2019-05-06T06:36:54.699Z,76.86
2019-05-06T06:39:29.750Z,75.29
2019-05-06T06:42:02.822Z,74.74
2019-05-06T06:44:35.598Z,74.56
2019-05-06T06:47:06.860Z,73.52
2019-05-06T06:49:38.266Z,73.53
2019-05-06T06:52:12.349Z,73.40
2019-05-06T06:54:43.841Z,74.06
2019-05-06T06:57:31.091Z,73.77
2019-05-06T07:00:06.878Z,73.18
2019-05-06T07:02:46.312Z,72.48
2019-05-06T07:05:33.034Z,71.94
2019-05-06T07:08:03.806Z,71.41
2019-05-06T07:10:53.364Z,71.66
2019-05-06T07:13:24.728Z,70.91
2019-05-06T07:15:56.022Z,69.80
2019-05-06T07:18:27.387Z,69.48
2019-05-06T07:21:15.514Z,67.77
2019-05-06T07:23:46.841Z,66.45
2019-05-06T07:26:19.991Z,66.83
2019-05-06T07:28:52.628Z,65.78
2019-05-06T07:31:26.701Z,65.64
2019-05-06T07:33:57.046Z,67.01
2019-05-06T07:36:28.551Z,66.23
2019-05-06T07:39:03.893Z,66.37
2019-05-06T07:41:43.462Z,64.46
2019-05-06T07:44:25.637Z,63.92
2019-05-06T07:47:05.416Z,63.64
2019-05-06T07:49:36.741Z,63.02
2019-05-06T07:52:08.024Z,62.45
2019-05-06T07:54:39.390Z,61.65
2019-05-06T07:57:12.524Z,60.56
2019-05-06T07:59:43.764Z,59.65
2019-05-06T08:02:15.036Z,58.76
2019-05-06T08:04:46.424Z,55.62
2019-05-06T08:07:17.721Z,56.42
2019-05-06T08:09:49.006Z,57.12
2019-05-06T08:12:22.246Z,56.33
2019-05-06T08:14:53.325Z,56.72
2019-05-06T08:17:35.250Z,55.96
2019-05-06T08:20:07.566Z,55.81
2019-05-06T08:22:56.627Z,54.07
2019-05-06T08:25:36.854Z,53.14
2019-05-06T08:28:08.161Z,52.77
2019-05-06T08:30:39.537Z,52.75
2019-05-06T08:33:12.719Z,51.74
2019-05-06T08:35:43.789Z,51.55
2019-05-06T08:38:15.081Z,51.34
2019-05-06T08:40:46.398Z,50.10
2019-05-06T08:43:17.710Z,48.12
2019-05-06T08:45:49.076Z,48.74
2019-05-06T08:48:22.028Z,47.63
2019-05-06T08:50:59.315Z,47.31
2019-05-06T08:53:49.474Z,46.83
2019-05-06T08:56:22.199Z,46.10
2019-05-06T08:58:53.549Z,45.31
2019-05-06T09:01:39.651Z,44.65
2019-05-06T09:04:13.751Z,43.30
2019-05-06T09:06:43.980Z,42.15
2019-05-06T09:09:15.321Z,41.01
2019-05-06T09:11:46.641Z,41.62
2019-05-06T09:14:17.927Z,41.49
2019-05-06T09:16:53.055Z,41.72
2019-05-06T09:19:23.317Z,39.76
2019-05-06T09:21:54.851Z,40.39
2019-05-06T09:24:26.208Z,38.83
2019-05-06T09:27:03.143Z,39.05
2019-05-06T09:29:47.162Z,40.93
2019-05-06T09:32:25.349Z,41.31
2019-05-06T09:34:58.444Z,39.81
2019-05-06T09:37:32.356Z,41.33
2019-05-06T09:40:03.069Z,39.95
2019-05-06T09:42:34.391Z,40.39
2019-05-06T09:45:06.363Z,40.69
2019-05-06T09:47:59.374Z,40.76
2019-05-06T09:50:46.019Z,42.41
2019-05-06T09:53:23.284Z,43.35
2019-05-06T09:56:33.496Z,43.26
2019-05-06T09:59:04.991Z,44.50
2019-05-06T10:01:36.440Z,41.17
2019-05-06T10:04:08.167Z,40.51
2019-05-06T10:06:39.604Z,41.25
2019-05-06T10:09:15.899Z,41.99
2019-05-06T10:11:45.483Z,41.24
2019-05-06T10:14:16.789Z,41.94
2019-05-06T10:16:48.086Z,44.03
2019-05-06T10:19:19.390Z,44.38
2019-05-06T10:21:52.884Z,45.90
2019-05-06T10:24:23.726Z,47.08
2019-05-06T10:26:58.505Z,47.16
2019-05-06T10:29:46.548Z,48.52
2019-05-06T10:32:26.748Z,49.26
2019-05-06T10:34:58.020Z,49.02
2019-05-06T10:37:36.788Z,48.30
2019-05-06T10:40:22.779Z,48.70
2019-05-06T10:43:43.137Z,47.88
2019-05-06T10:46:14.578Z,47.87
2019-05-06T10:48:45.845Z,47.15
2019-05-06T10:51:23.005Z,46.72
2019-05-06T10:53:54.399Z,45.68
2019-05-06T10:56:53.744Z,45.73
2019-05-06T10:59:17.768Z,46.35
2019-05-06T11:01:50.629Z,46.11
2019-05-06T11:04:22.523Z,47.04
2019-05-06T11:06:53.917Z,47.11
2019-05-06T11:09:25.200Z,47.68
2019-05-06T11:11:56.541Z,48.68
2019-05-06T11:14:27.775Z,49.99
2019-05-06T11:16:59.116Z,51.73
2019-05-06T11:19:30.386Z,53.14
2019-05-06T11:22:03.602Z,52.70
2019-05-06T11:24:35.344Z,53.53
2019-05-06T11:27:07.536Z,52.19
2019-05-06T11:29:43.528Z,52.72
2019-05-06T11:32:33.074Z,52.26
2019-05-06T11:35:16.677Z,52.18
2019-05-06T11:38:12.024Z,49.50
2019-05-06T11:40:43.410Z,50.75
2019-05-06T11:43:44.425Z,51.63
2019-05-06T11:46:16.251Z,52.43
2019-05-06T11:48:48.097Z,52.30
2019-05-06T11:51:23.084Z,52.03
2019-05-06T11:53:55.019Z,52.11
2019-05-06T11:56:50.984Z,53.24
2019-05-06T11:59:19.300Z,55.15
2019-05-06T12:01:56.459Z,59.41
2019-05-06T12:04:28.353Z,62.77
2019-05-06T12:07:10.182Z,65.21
2019-05-06T12:09:33.815Z,66.85
2019-05-06T12:12:05.684Z,66.97
2019-05-06T12:14:37.500Z,68.18
2019-05-06T12:17:09.347Z,68.40
2019-05-06T12:19:43.258Z,68.47
2019-05-06T12:22:14.781Z,69.57
2019-05-06T12:24:46.654Z,70.20
2019-05-06T12:27:35.843Z,69.71
2019-05-06T12:30:08.197Z,69.15
2019-05-06T12:32:44.663Z,67.57
2019-05-06T12:35:16.635Z,66.18
2019-05-06T12:37:52.964Z,66.52
2019-05-06T12:40:24.405Z,64.34
2019-05-06T12:43:15.165Z,63.53
2019-05-06T12:45:48.810Z,63.55
2019-05-06T12:48:33.243Z,63.24
2019-05-06T12:51:05.159Z,63.20
2019-05-06T12:53:37.002Z,63.09
2019-05-06T12:56:09.011Z,61.24
2019-05-06T12:58:44.097Z,58.84
2019-05-06T13:01:14.447Z,52.74
2019-05-06T13:03:46.320Z,53.51
2019-05-06T13:06:18.840Z,52.58
2019-05-06T13:08:58.800Z,50.03
2019-05-06T13:11:25.347Z,50.61
2019-05-06T13:14:00.674Z,49.77
2019-05-06T13:16:33.220Z,48.60
2019-05-06T13:19:04.709Z,47.79
2019-05-06T13:21:36.561Z,45.81
2019-05-06T13:24:08.644Z,44.79
2019-05-06T13:26:42.904Z,44.99
2019-05-06T13:29:22.683Z,43.68
2019-05-06T13:31:54.609Z,42.92
2019-05-06T13:34:26.512Z,44.10
2019-05-06T13:36:58.432Z,42.96
2019-05-06T13:39:32.580Z,41.74
2019-05-06T13:42:03.831Z,43.15
2019-05-06T13:44:35.693Z,43.48
2019-05-06T13:47:09.496Z,43.12
2019-05-06T13:49:53.799Z,41.58
2019-05-06T13:52:27.548Z,42.12
2019-05-06T13:54:59.470Z,42.37
2019-05-06T13:57:32.067Z,42.42
2019-05-06T14:00:04.434Z,44.05
2019-05-06T14:02:45.333Z,44.10
2019-05-06T14:05:17.764Z,43.68
2019-05-06T14:07:49.610Z,44.60
2019-05-06T14:10:22.248Z,45.45
2019-05-06T14:12:54.177Z,44.95
2019-05-06T14:15:26.013Z,46.24
2019-05-06T14:17:57.944Z,46.23
2019-05-06T14:20:29.739Z,47.32
2019-05-06T14:23:02.260Z,48.16
2019-05-06T14:25:45.336Z,48.19
2019-05-06T14:28:24.822Z,48.09
2019-05-06T14:31:06.055Z,48.12
2019-05-06T14:33:37.953Z,48.90
2019-05-06T14:36:13.072Z,49.48
2019-05-06T14:38:44.973Z,50.14
2019-05-06T14:41:26.128Z,49.10
2019-05-06T14:43:53.582Z,48.73
2019-05-06T14:46:25.472Z,49.26
2019-05-06T14:48:57.303Z,48.93
2019-05-06T14:51:29.260Z,49.54
2019-05-06T14:54:01.105Z,50.17
2019-05-06T14:56:44.719Z,50.88
2019-05-06T14:59:16.621Z,51.13
2019-05-06T15:01:48.493Z,51.39
2019-05-06T15:04:22.811Z,51.90
2019-05-06T15:06:53.962Z,51.11
2019-05-06T15:09:25.896Z,50.64
2019-05-06T15:11:57.741Z,50.93
2019-05-06T15:14:29.599Z,50.54
2019-05-06T15:17:02.226Z,50.39
2019-05-06T15:19:34.240Z,51.34
2019-05-06T15:22:06.282Z,50.79
2019-05-06T15:24:38.135Z,51.07
2019-05-06T15:27:11.969Z,50.63
2019-05-06T15:29:48.668Z,50.19
2019-05-06T15:32:24.994Z,50.48
2019-05-06T15:35:18.697Z,48.83
2019-05-06T15:37:54.024Z,49.23
2019-05-06T15:40:32.846Z,49.36
2019-05-06T15:42:59.659Z,49.27
2019-05-06T15:45:32.492Z,50.17
2019-05-06T15:48:04.482Z,50.84
2019-05-06T15:50:36.342Z,51.45
2019-05-06T15:53:08.293Z,52.42
2019-05-06T15:55:40.173Z,53.43
2019-05-06T15:58:12.487Z,54.43
2019-05-06T16:00:44.373Z,55.33
2019-05-06T16:03:16.304Z,56.04
2019-05-06T16:05:48.170Z,56.65
2019-05-06T16:08:20.008Z,56.40
2019-05-06T16:10:58.075Z,56.14
2019-05-06T16:13:25.560Z,56.39
2019-05-06T16:15:57.494Z,57.38
2019-05-06T16:18:29.332Z,58.19
2019-05-06T16:21:02.924Z,59.07
2019-05-06T16:23:42.317Z,60.26
2019-05-06T16:26:14.279Z,60.75
2019-05-06T16:28:46.182Z,60.86
2019-05-06T16:31:19.704Z,60.52
2019-05-06T16:33:52.434Z,60.47
2019-05-06T16:36:24.333Z,60.48
2019-05-06T16:38:56.211Z,60.85
2019-05-06T16:41:28.091Z,61.23
2019-05-06T16:44:02.032Z,62.60
2019-05-06T16:46:34.254Z,62.06
2019-05-06T16:49:06.225Z,63.29
2019-05-06T16:51:38.091Z,64.58
2019-05-06T16:54:09.949Z,64.08
2019-05-06T16:56:47.266Z,64.40
2019-05-06T16:59:19.145Z,64.02
2019-05-06T17:01:52.322Z,64.75
2019-05-06T17:04:46.294Z,64.32
2019-05-06T17:07:18.180Z,64.62
2019-05-06T17:09:49.989Z,63.52
2019-05-06T17:12:22.443Z,64.27
2019-05-06T17:14:54.343Z,65.36
2019-05-06T17:17:39.845Z,65.24
2019-05-06T17:19:59.758Z,65.33
2019-05-06T17:22:32.583Z,64.73
2019-05-06T17:25:04.655Z,64.83
2019-05-06T17:27:38.371Z,65.60
2019-05-06T17:30:25.388Z,65.22
2019-05-06T17:33:02.311Z,65.54
2019-05-06T17:35:34.099Z,64.35
2019-05-06T17:38:18.174Z,64.73
2019-05-06T17:40:49.966Z,63.53
2019-05-06T17:43:22.621Z,64.55
2019-05-06T17:46:03.108Z,64.46
2019-05-06T17:48:42.973Z,64.47
2019-05-06T17:51:16.537Z,63.81
2019-05-06T17:53:52.251Z,63.88
2019-05-06T17:56:24.297Z,63.81
2019-05-06T17:58:56.173Z,64.41
2019-05-06T18:01:38.852Z,63.50
2019-05-06T18:04:12.577Z,63.66
2019-05-06T18:06:44.606Z,63.75
2019-05-06T18:09:16.481Z,63.19
2019-05-06T18:11:58.261Z,63.32
2019-05-06T18:14:23.016Z,62.73
2019-05-06T18:16:54.918Z,63.60
2019-05-06T18:19:26.762Z,63.32
2019-05-06T18:21:58.641Z,63.63
2019-05-06T18:24:30.514Z,64.43
2019-05-06T18:27:02.720Z,63.73
2019-05-06T18:29:34.646Z,64.03
2019-05-06T18:32:06.480Z,64.07
2019-05-06T18:34:38.352Z,64.34
2019-05-06T18:37:12.514Z,64.27
2019-05-06T18:39:43.808Z,64.44
2019-05-06T18:42:20.166Z,64.47
2019-05-06T18:44:49.299Z,65.24
2019-05-06T18:47:21.192Z,65.53
2019-05-06T18:49:55.296Z,65.77
2019-05-06T18:52:27.178Z,66.06
2019-05-06T18:54:59.103Z,66.21
2019-05-06T18:57:32.823Z,65.79
2019-05-06T19:00:04.868Z,66.26
2019-05-06T19:02:36.833Z,66.74
2019-05-06T19:05:26.864Z,66.90
2019-05-06T19:07:56.787Z,67.11
2019-05-06T19:10:29.686Z,66.71
2019-05-06T19:13:02.052Z,67.06
2019-05-06T19:15:34.488Z,66.67
2019-05-06T19:18:06.448Z,67.11
2019-05-06T19:20:38.283Z,66.81
2019-05-06T19:23:10.130Z,67.02
2019-05-06T19:25:42.811Z,67.87
2019-05-06T19:28:14.773Z,68.02
2019-05-06T19:30:46.644Z,68.60
2019-05-06T19:33:18.475Z,69.08
2019-05-06T19:35:52.295Z,69.56
2019-05-06T19:38:24.540Z,69.85
2019-05-06T19:40:56.522Z,70.28
2019-05-06T19:43:28.410Z,71.07
2019-05-06T19:46:02.439Z,71.00
2019-05-06T19:48:33.828Z,71.28
2019-05-06T19:51:05.663Z,71.99
2019-05-06T19:53:37.519Z,72.43
2019-05-06T19:56:09.408Z,72.71
2019-05-06T19:58:42.879Z,72.61
2019-05-06T20:01:14.927Z,72.77
2019-05-06T20:03:46.829Z,72.79
2019-05-06T20:06:37.586Z,72.87
2019-05-06T20:09:38.377Z,73.09
2019-05-06T20:12:15.672Z,73.28
2019-05-06T20:14:47.629Z,73.27
2019-05-06T20:17:19.621Z,73.69
2019-05-06T20:19:51.963Z,73.95
2019-05-06T20:22:23.856Z,74.11
2019-05-06T20:24:55.859Z,74.28
2019-05-06T20:27:27.714Z,74.66
2019-05-06T20:29:59.579Z,74.16
2019-05-06T20:32:32.250Z,74.33
2019-05-06T20:35:06.386Z,74.36
2019-05-06T20:37:38.093Z,74.41
2019-05-06T20:40:12.465Z,74.29
2019-05-06T20:42:43.665Z,73.97
2019-05-06T20:45:15.698Z,73.96
2019-05-06T20:47:47.591Z,73.83
2019-05-06T20:50:19.931Z,73.67
2019-05-06T20:52:52.106Z,73.88
2019-05-06T20:55:24.045Z,73.79
2019-05-06T20:57:55.874Z,73.15
2019-05-06T21:00:28.626Z,72.97
2019-05-06T21:03:00.462Z,72.85
2019-05-06T21:05:32.686Z,72.89
2019-05-06T21:08:04.766Z,73.29
2019-05-06T21:10:36.643Z,73.56
2019-05-06T21:13:08.450Z,73.78
2019-05-06T21:15:40.300Z,74.53
2019-05-06T21:18:12.285Z,75.36
2019-05-06T21:20:44.916Z,75.79
2019-05-06T21:23:16.801Z,76.26
2019-05-06T21:25:48.636Z,76.15
2019-05-06T21:28:20.542Z,76.10
2019-05-06T21:30:52.875Z,75.78
2019-05-06T21:33:24.975Z,75.81
2019-05-06T21:35:56.818Z,76.02
2019-05-06T21:38:28.667Z,76.23
2019-05-06T21:41:02.071Z,76.51
2019-05-06T21:43:46.061Z,76.60
2019-05-06T21:46:07.600Z,76.63
2019-05-06T21:48:39.449Z,76.72
2019-05-06T21:51:12.694Z,76.79
2019-05-06T21:53:44.649Z,76.81
2019-05-06T21:56:16.480Z,76.81
2019-05-06T21:58:48.368Z,76.56
2019-05-06T22:01:22.138Z,76.44
2019-05-06T22:03:54.129Z,76.50
2019-05-06T22:06:25.971Z,76.25
2019-05-06T22:08:57.813Z,75.92
2019-05-06T22:11:29.674Z,75.92
2019-05-06T22:14:04.603Z,75.80
2019-05-06T22:16:36.457Z,75.77
2019-05-06T22:19:08.291Z,75.61
2019-05-06T22:21:48.959Z,75.39
2019-05-06T22:24:22.345Z,75.22
2019-05-06T22:26:54.270Z,75.23
2019-05-06T22:29:26.136Z,75.13
2019-05-06T22:31:58.765Z,75.21
2019-05-06T22:34:32.820Z,74.88
2019-05-06T22:37:04.189Z,74.71
2019-05-06T22:39:36.065Z,74.23
2019-05-06T22:42:07.901Z,74.21
2019-05-06T22:44:39.747Z,74.20
2019-05-06T22:47:12.147Z,73.99
2019-05-06T22:49:44.132Z,73.95
2019-05-06T22:52:15.970Z,74.06
2019-05-06T22:54:47.856Z,74.12
2019-05-06T22:57:19.707Z,74.09
2019-05-06T22:59:52.327Z,74.01
2019-05-06T23:02:36.780Z,74.21
2019-05-06T23:05:09.710Z,74.68
2019-05-06T23:07:42.317Z,74.84
2019-05-06T23:10:14.311Z,75.17
2019-05-06T23:12:46.111Z,75.55
2019-05-06T23:15:18.017Z,75.70
2019-05-06T23:17:49.814Z,75.55
2019-05-06T23:20:24.227Z,75.62
2019-05-06T23:22:55.102Z,75.51
2019-05-06T23:25:26.945Z,75.20
2019-05-06T23:27:58.807Z,74.72
2019-05-06T23:30:33.251Z,74.26
2019-05-06T23:33:04.428Z,73.93
2019-05-06T23:35:36.308Z,73.62
2019-05-06T23:39:01.968Z,73.29
2019-05-06T23:42:27.080Z,72.66
2019-05-06T23:45:54.244Z,72.09
2019-05-06T23:49:19.044Z,72.29
2019-05-06T23:52:43.779Z,72.05
2019-05-06T23:56:08.458Z,71.42
2019-05-06T23:58:40.300Z,70.94
